TimeCST,TemperatureF,Dew PointF,Humidity,Sea Level PressureIn,VisibilityMPH,Wind Direction,Wind SpeedMPH,Gust SpeedMPH,PrecipitationIn,Events,Conditions,WindDirDegrees,DateUTC
12:53 AM,28.9,21.9,75,30.16,9.0,WNW,12.7,-,N/A,,Overcast,300,2013-02-12 06:53:00
1:53 AM,28.9,21.9,75,30.16,9.0,NW,9.2,-,N/A,,Overcast,310,2013-02-12 07:53:00
2:53 AM,28.9,21.9,75,30.17,9.0,WNW,6.9,-,N/A,,Overcast,300,2013-02-12 08:53:00
3:53 AM,28.0,21.0,75,30.15,9.0,NW,10.4,-,N/A,,Overcast,310,2013-02-12 09:53:00
4:53 AM,27.0,21.0,78,30.14,10.0,NW,4.6,-,N/A,,Overcast,310,2013-02-12 10:53:00
5:53 AM,27.0,21.0,78,30.14,10.0,WNW,3.5,-,N/A,,Overcast,290,2013-02-12 11:53:00
6:53 AM,26.1,21.0,81,30.15,10.0,West,4.6,-,N/A,,Mostly Cloudy,260,2013-02-12 12:53:00
7:33 AM,24.8,19.4,80,30.11,8.0,Calm,Calm,-,N/A,,Scattered Clouds,0,2013-02-12 13:33:00
7:53 AM,26.1,21.0,81,30.14,7.0,Calm,Calm,-,N/A,,Clear,0,2013-02-12 13:53:00
8:53 AM,28.0,21.9,78,30.13,8.0,SSW,6.9,-,N/A,,Clear,210,2013-02-12 14:53:00
9:53 AM,30.0,21.9,72,30.13,8.0,South,8.1,-,N/A,,Clear,190,2013-02-12 15:53:00
10:53 AM,32.0,21.9,66,30.12,10.0,South,5.8,-,N/A,,Clear,180,2013-02-12 16:53:00
11:53 AM,35.1,24.1,64,30.10,10.0,WSW,6.9,-,N/A,,Clear,240,2013-02-12 17:53:00
12:53 PM,39.0,21.9,50,30.05,10.0,WNW,5.8,-,N/A,,Clear,290,2013-02-12 18:53:00
1:53 PM,41.0,24.1,51,30.03,10.0,Variable,5.8,-,N/A,,Clear,0,2013-02-12 19:53:00
2:53 PM,43.0,24.1,47,29.99,10.0,SSW,9.2,-,N/A,,Clear,200,2013-02-12 20:53:00
3:53 PM,43.0,24.1,47,29.97,10.0,SW,10.4,-,N/A,,Clear,220,2013-02-12 21:53:00
4:53 PM,41.0,26.1,55,29.96,10.0,SSW,10.4,-,N/A,,Clear,210,2013-02-12 22:53:00
5:53 PM,37.0,25.0,62,29.96,10.0,SW,3.5,-,N/A,,Clear,220,2013-02-12 23:53:00
6:53 PM,36.0,24.1,62,29.95,10.0,SSW,5.8,-,N/A,,Clear,210,2013-02-13 00:53:00
7:53 PM,35.1,24.1,64,29.94,10.0,SSW,9.2,-,N/A,,Clear,210,2013-02-13 01:53:00
8:53 PM,33.1,24.1,70,29.94,10.0,SSW,9.2,-,N/A,,Clear,210,2013-02-13 02:53:00
9:53 PM,33.1,25.0,72,29.94,10.0,SW,9.2,-,N/A,,Clear,220,2013-02-13 03:53:00
10:53 PM,33.1,25.0,72,29.92,10.0,SW,9.2,-,N/A,,Clear,220,2013-02-13 04:53:00
11:53 PM,32.0,25.0,75,29.91,10.0,SSW,9.2,-,N/A,,Clear,210,2013-02-13 05:53:00